Keota, Missouri
Current Conditions -  °F | °C
As of 12:55 PM on Monday 20 Oct 2014 (Local Time) from KIRK Reporting Station
Clear Clear  
Wind Chill: 68°   Ceiling: Unl
Heat Index: 68°   Visibility: 10mi
Dew Point: 45°   Wind: 13mph
Humidity: 43%   Direction: 360°N
Pressure: 30.03"   Gusts: NA
Location:  39.7769°N, 92.5616°W
Report Text: KIRK 201755Z AUTO 36011KT 10SM CLR 20/07 A3003 RMK AO2 SLP169 T02000072 10200 20094 58003
Loading
Personal Weather Stations






























Interactive Weather Map
Tropical Storm Tracking
New forecast layout! Learn more

10-Day Weather Forecast

Advertisements
Track Severe Weather on mobile